Abingdon, Iowa
Current Conditions -  °F | °C
As of 6:35 AM on Saturday 25 Oct 2014 (Local Time) from KFFL Reporting Station
NA  
Wind Chill: 46°   Ceiling: NA
Heat Index: 48°   Visibility: NA
Dew Point: 46°   Wind: 5mph
Humidity: 93%   Direction: 280°W
Pressure: 29.99"   Gusts: NA
Location:  40.9883°N, 92.1215°W
Report Text: KFFL 251135Z AUTO 28004KT 09/08 A2999 RMK AO2
Loading
Personal Weather Stations






























Interactive Weather Map
Tropical Storm Tracking
New forecast layout! Learn more

10-Day Weather Forecast

Advertisements
Track Severe Weather on mobile